Time;durP1;ratioP1;P1;durP2;ratioP2;P2;SDS_P1;SDS_P2;PMS_P1;PMS_P2;Temp;Humidity;BMP_temperature;BMP_pressure;BME280_temperature;BME280_humidity;BME280_pressure;Samples;Min_cycle;Max_cycle;Signal;HPM_P1;HPM_P2
2021/10/14 00:00:30;;;;;;;7.05;2.10;;;;;;;;;;5074869;28;20048;-56
2021/10/14 00:02:55;;;;;;;3.08;1.88;;;;;;;;;;5074631;28;20078;-57
2021/10/14 00:05:20;;;;;;;3.35;2.15;;;;;;;;;;5073578;28;20024;-58
2021/10/14 00:07:45;;;;;;;8.48;2.92;;;;;;;;;;5074042;28;20035;-53
2021/10/14 00:10:11;;;;;;;3.00;2.65;;;;;;;;;;5074589;28;20371;-55
2021/10/14 00:12:36;;;;;;;3.85;2.60;;;;;;;;;;5074482;28;20047;-57
2021/10/14 00:15:01;;;;;;;8.00;2.33;;;;;;;;;;5074283;28;20017;-58
2021/10/14 00:17:27;;;;;;;4.72;2.40;;;;;;;;;;5073937;28;20024;-57
2021/10/14 00:19:52;;;;;;;2.85;1.98;;;;;;;;;;5074618;28;20074;-58
2021/10/14 00:22:17;;;;;;;5.22;2.45;;;;;;;;;;5074156;28;20036;-57
2021/10/14 00:24:42;;;;;;;6.15;2.60;;;;;;;;;;5073006;28;20036;-58
2021/10/14 00:27:07;;;;;;;4.35;2.25;;;;;;;;;;5069203;28;20067;-59
2021/10/14 00:29:33;;;;;;;7.10;2.30;;;;;;;;;;5073653;28;20032;-58
2021/10/14 00:31:58;;;;;;;3.22;1.42;;;;;;;;;;5073929;28;20032;-58
2021/10/14 00:34:24;;;;;;;3.90;2.15;;;;;;;;;;5072391;28;20063;-59
2021/10/14 00:36:49;;;;;;;4.22;2.40;;;;;;;;;;5073917;28;20023;-58
2021/10/14 00:39:14;;;;;;;6.15;2.90;;;;;;;;;;5073902;28;20484;-58
2021/10/14 00:41:39;;;;;;;6.00;2.67;;;;;;;;;;5074207;28;20492;-58
2021/10/14 00:44:05;;;;;;;3.70;2.75;;;;;;;;;;5071500;28;20078;-58
2021/10/14 00:46:30;;;;;;;5.15;2.67;;;;;;;;;;5073571;28;20067;-56
2021/10/14 00:48:55;;;;;;;6.50;3.15;;;;;;;;;;5071385;28;20032;-58
2021/10/14 00:51:20;;;;;;;4.65;2.28;;;;;;;;;;5073303;28;20484;-57
2021/10/14 00:53:46;;;;;;;6.07;3.13;;;;;;;;;;5073285;28;20491;-58
2021/10/14 00:56:11;;;;;;;5.88;2.72;;;;;;;;;;5070643;28;20039;-58
2021/10/14 00:58:37;;;;;;;7.38;2.72;;;;;;;;;;5073156;28;20040;-59
2021/10/14 01:01:03;;;;;;;5.80;2.85;;;;;;;;;;5073682;28;20487;-57
2021/10/14 01:03:29;;;;;;;5.78;3.38;;;;;;;;;;5073382;28;20024;-55
2021/10/14 01:05:54;;;;;;;6.57;4.15;;;;;;;;;;5074640;28;20024;-57
2021/10/14 01:08:19;;;;;;;7.57;4.55;;;;;;;;;;5072824;28;20111;-58
2021/10/14 01:10:44;;;;;;;7.03;3.45;;;;;;;;;;5072223;28;20072;-57
2021/10/14 01:13:10;;;;;;;4.85;3.75;;;;;;;;;;5072992;28;20052;-58
2021/10/14 01:15:35;;;;;;;4.35;3.15;;;;;;;;;;5073342;28;20035;-58
2021/10/14 01:18:00;;;;;;;6.55;3.72;;;;;;;;;;5072898;28;20040;-57
2021/10/14 01:20:25;;;;;;;5.88;3.15;;;;;;;;;;5072962;28;20039;-57
2021/10/14 01:22:51;;;;;;;5.65;3.60;;;;;;;;;;5072831;28;20033;-57
2021/10/14 01:25:16;;;;;;;7.20;4.03;;;;;;;;;;5069711;28;20869;-57
2021/10/14 01:27:41;;;;;;;7.45;4.03;;;;;;;;;;5071036;28;20032;-58
2021/10/14 01:30:07;;;;;;;7.10;3.75;;;;;;;;;;5072595;28;20017;-58
2021/10/14 01:32:33;;;;;;;4.30;2.45;;;;;;;;;;5072239;28;20036;-58
2021/10/14 01:34:58;;;;;;;7.28;3.00;;;;;;;;;;5072973;28;20064;-57
2021/10/14 01:37:23;;;;;;;4.45;3.40;;;;;;;;;;5072389;28;20036;-58
2021/10/14 01:39:48;;;;;;;8.85;4.55;;;;;;;;;;5072448;28;20111;-58
2021/10/14 01:42:13;;;;;;;7.28;5.15;;;;;;;;;;5073075;28;20032;-57
2021/10/14 01:44:39;;;;;;;7.18;3.65;;;;;;;;;;5072820;28;20102;-57
2021/10/14 01:47:04;;;;;;;8.68;3.88;;;;;;;;;;5072363;28;20033;-59
2021/10/14 01:49:29;;;;;;;7.30;4.70;;;;;;;;;;5071037;28;20085;-58
2021/10/14 01:51:54;;;;;;;7.32;4.35;;;;;;;;;;5072236;28;20031;-58
2021/10/14 01:54:20;;;;;;;7.75;3.80;;;;;;;;;;5072259;28;20381;-56
2021/10/14 01:56:45;;;;;;;7.65;5.00;;;;;;;;;;5068762;28;20499;-57
2021/10/14 01:59:10;;;;;;;7.07;5.25;;;;;;;;;;5071920;28;20016;-57
2021/10/14 02:01:35;;;;;;;10.23;5.53;;;;;;;;;;5069771;28;20082;-57
2021/10/14 02:04:01;;;;;;;9.45;6.05;;;;;;;;;;5072196;28;20037;-56
2021/10/14 02:06:27;;;;;;;7.55;5.05;;;;;;;;;;5072355;28;20452;-58
2021/10/14 02:08:52;;;;;;;9.48;5.25;;;;;;;;;;5071775;28;20059;-58
2021/10/14 02:11:17;;;;;;;10.57;5.05;;;;;;;;;;5072266;28;20135;-59
2021/10/14 02:13:43;;;;;;;6.70;4.75;;;;;;;;;;5072052;28;20013;-58
2021/10/14 02:16:08;;;;;;;9.02;5.10;;;;;;;;;;5071782;28;20050;-56
2021/10/14 02:18:33;;;;;;;8.80;5.03;;;;;;;;;;5071450;28;20039;-57
2021/10/14 02:20:58;;;;;;;6.65;4.85;;;;;;;;;;5072002;28;20031;-57
2021/10/14 02:23:24;;;;;;;8.90;5.18;;;;;;;;;;5070186;28;20035;-57
2021/10/14 02:25:49;;;;;;;8.35;5.25;;;;;;;;;;5069636;28;20048;-58
2021/10/14 02:28:14;;;;;;;7.93;4.88;;;;;;;;;;5071398;28;20032;-58
2021/10/14 02:30:39;;;;;;;7.25;5.30;;;;;;;;;;5071119;28;20116;-57
2021/10/14 02:33:04;;;;;;;7.80;5.47;;;;;;;;;;5071303;28;20039;-58
2021/10/14 02:35:30;;;;;;;8.15;5.82;;;;;;;;;;5071809;28;20193;-57
2021/10/14 02:37:55;;;;;;;10.43;5.85;;;;;;;;;;5072098;28;20031;-58
2021/10/14 02:40:20;;;;;;;7.95;5.57;;;;;;;;;;5071344;28;20496;-57
2021/10/14 02:42:45;;;;;;;8.93;5.68;;;;;;;;;;5071554;28;20029;-57
2021/10/14 02:45:10;;;;;;;8.88;6.05;;;;;;;;;;5071980;28;20039;-56
2021/10/14 02:47:36;;;;;;;9.93;6.47;;;;;;;;;;5071547;28;20043;-56
2021/10/14 02:50:01;;;;;;;8.13;5.97;;;;;;;;;;5069967;28;20063;-53
2021/10/14 02:52:26;;;;;;;7.05;4.97;;;;;;;;;;5071194;28;20016;-57
2021/10/14 02:54:51;;;;;;;6.30;4.78;;;;;;;;;;5071339;28;20086;-56
2021/10/14 02:57:16;;;;;;;11.57;6.90;;;;;;;;;;5072024;28;20479;-57
2021/10/14 02:59:42;;;;;;;7.85;5.95;;;;;;;;;;5072453;28;20083;-58
2021/10/14 03:02:07;;;;;;;14.38;9.07;;;;;;;;;;5071257;28;20040;-58
2021/10/14 03:04:32;;;;;;;9.88;6.38;;;;;;;;;;5071532;28;20024;-57
2021/10/14 03:06:57;;;;;;;11.40;7.32;;;;;;;;;;5071571;28;20091;-58
2021/10/14 03:09:22;;;;;;;11.35;8.20;;;;;;;;;;5075809;28;20384;-58
2021/10/14 03:11:47;;;;;;;12.05;8.20;;;;;;;;;;5075461;28;20017;-56
2021/10/14 03:14:13;;;;;;;11.60;7.38;;;;;;;;;;5075028;28;20028;-58
2021/10/14 03:16:38;;;;;;;11.88;7.00;;;;;;;;;;5075137;28;20025;-58
2021/10/14 03:19:03;;;;;;;10.65;7.88;;;;;;;;;;5075232;28;20043;-58
2021/10/14 03:21:28;;;;;;;13.13;7.70;;;;;;;;;;5075078;28;20082;-57
2021/10/14 03:23:53;;;;;;;12.25;9.00;;;;;;;;;;5075362;28;20473;-59
2021/10/14 03:26:19;;;;;;;12.77;8.52;;;;;;;;;;5072052;28;20112;-57
2021/10/14 03:28:44;;;;;;;9.48;6.97;;;;;;;;;;5075520;28;20024;-58
2021/10/14 03:31:10;;;;;;;9.85;7.38;;;;;;;;;;5075250;28;20012;-56
2021/10/14 03:33:35;;;;;;;12.95;7.72;;;;;;;;;;5075015;28;20579;-57
2021/10/14 03:36:00;;;;;;;16.63;9.10;;;;;;;;;;5075186;28;20040;-58
2021/10/14 03:38:26;;;;;;;14.30;8.23;;;;;;;;;;5075072;28;20032;-56
2021/10/14 03:40:51;;;;;;;14.40;8.32;;;;;;;;;;5075412;28;20020;-58
2021/10/14 03:43:16;;;;;;;13.27;8.80;;;;;;;;;;5073451;28;20491;-58
2021/10/14 03:45:42;;;;;;;17.30;10.57;;;;;;;;;;5074685;28;20170;-58
2021/10/14 03:48:07;;;;;;;16.58;10.25;;;;;;;;;;5074452;28;20032;-58
2021/10/14 03:50:32;;;;;;;12.65;8.20;;;;;;;;;;5075032;28;20067;-58
2021/10/14 03:52:57;;;;;;;12.00;7.15;;;;;;;;;;5073924;28;20046;-58
2021/10/14 03:55:23;;;;;;;8.30;5.03;;;;;;;;;;5073883;28;20021;-58
2021/10/14 03:57:48;;;;;;;11.07;6.75;;;;;;;;;;5074900;28;20024;-58
2021/10/14 04:00:14;;;;;;;8.93;5.53;;;;;;;;;;5074554;28;20111;-58
2021/10/14 04:02:39;;;;;;;10.00;7.50;;;;;;;;;;5074104;28;20484;-59
2021/10/14 04:05:05;;;;;;;10.50;7.35;;;;;;;;;;5074554;28;20400;-57
2021/10/14 04:07:30;;;;;;;10.40;6.22;;;;;;;;;;5074466;28;20143;-57
2021/10/14 04:09:55;;;;;;;8.68;6.18;;;;;;;;;;5074708;28;20024;-58
2021/10/14 04:12:20;;;;;;;10.65;7.05;;;;;;;;;;5074663;28;20469;-59
2021/10/14 04:14:46;;;;;;;10.00;5.70;;;;;;;;;;5073731;28;20119;-58
2021/10/14 04:17:11;;;;;;;6.70;5.70;;;;;;;;;;5072851;28;20108;-56
2021/10/14 04:19:36;;;;;;;6.82;5.00;;;;;;;;;;5073184;28;20043;-57
2021/10/14 04:22:02;;;;;;;8.50;3.85;;;;;;;;;;5073760;28;20388;-58
2021/10/14 04:24:29;;;;;;;8.68;5.90;;;;;;;;;;5075245;28;20119;-58
2021/10/14 04:26:54;;;;;;;6.97;4.28;;;;;;;;;;5075030;28;20038;-59
2021/10/14 04:29:19;;;;;;;11.40;7.82;;;;;;;;;;5073750;28;20051;-57
2021/10/14 04:31:45;;;;;;;9.32;6.35;;;;;;;;;;5072498;28;20024;-58
2021/10/14 04:34:10;;;;;;;8.27;6.22;;;;;;;;;;5073393;28;20004;-57
2021/10/14 04:36:37;;;;;;;7.65;4.70;;;;;;;;;;5073642;28;20025;-58
2021/10/14 04:39:02;;;;;;;8.13;6.18;;;;;;;;;;5073966;28;20102;-59
2021/10/14 04:41:28;;;;;;;6.15;4.47;;;;;;;;;;5074153;28;20024;-58
2021/10/14 04:43:53;;;;;;;7.05;5.13;;;;;;;;;;5072197;28;20031;-60
2021/10/14 04:46:20;;;;;;;7.97;5.40;;;;;;;;;;5073375;28;20032;-58
2021/10/14 04:48:45;;;;;;;11.57;6.55;;;;;;;;;;5073650;28;20442;-59
2021/10/14 04:51:10;;;;;;;7.57;5.47;;;;;;;;;;5073666;28;20028;-57
2021/10/14 04:53:35;;;;;;;8.40;5.45;;;;;;;;;;5073502;28;20025;-58
2021/10/14 04:56:01;;;;;;;6.20;4.55;;;;;;;;;;5069806;28;20028;-58
2021/10/14 04:58:26;;;;;;;9.50;5.70;;;;;;;;;;5073705;28;20028;-57
2021/10/14 05:00:51;;;;;;;7.78;5.63;;;;;;;;;;5073208;28;20077;-58
2021/10/14 05:03:18;;;;;;;9.98;6.10;;;;;;;;;;5073172;28;20526;-56
2021/10/14 05:05:43;;;;;;;5.60;4.80;;;;;;;;;;5073077;28;20477;-57
2021/10/14 05:08:09;;;;;;;7.95;6.72;;;;;;;;;;5072725;28;20031;-57
2021/10/14 05:10:34;;;;;;;9.73;6.47;;;;;;;;;;5073265;28;20024;-58
2021/10/14 05:12:59;;;;;;;10.82;7.07;;;;;;;;;;5072760;28;20032;-60
2021/10/14 05:15:24;;;;;;;8.18;5.75;;;;;;;;;;5071830;28;20058;-58
2021/10/14 05:17:49;;;;;;;9.98;6.88;;;;;;;;;;5072158;28;20476;-59
2021/10/14 05:20:15;;;;;;;10.70;6.95;;;;;;;;;;5073450;28;20028;-59
2021/10/14 05:22:40;;;;;;;11.88;7.43;;;;;;;;;;5071526;28;20056;-58
2021/10/14 05:25:06;;;;;;;11.75;7.57;;;;;;;;;;5071157;28;20041;-58
2021/10/14 05:27:31;;;;;;;12.40;7.72;;;;;;;;;;5072652;28;20059;-59
2021/10/14 05:29:56;;;;;;;12.55;8.35;;;;;;;;;;5073334;28;20016;-59
2021/10/14 05:32:21;;;;;;;7.75;4.82;;;;;;;;;;5071993;28;20488;-58
2021/10/14 05:34:47;;;;;;;10.52;6.88;;;;;;;;;;5073311;28;20135;-59
2021/10/14 05:37:12;;;;;;;12.98;7.18;;;;;;;;;;5072932;28;20099;-59
2021/10/14 05:39:37;;;;;;;6.40;4.97;;;;;;;;;;5072619;28;20032;-59
2021/10/14 05:42:02;;;;;;;3.67;2.42;;;;;;;;;;5071974;28;20020;-59
2021/10/14 05:44:28;;;;;;;8.45;5.82;;;;;;;;;;5073237;28;20036;-56
2021/10/14 05:46:53;;;;;;;10.80;6.22;;;;;;;;;;5072213;28;20035;-58
2021/10/14 05:49:18;;;;;;;8.55;6.55;;;;;;;;;;5071731;28;20029;-57
2021/10/14 05:51:43;;;;;;;15.25;11.27;;;;;;;;;;5071716;28;20473;-58
2021/10/14 05:54:08;;;;;;;17.45;10.77;;;;;;;;;;5069152;28;20127;-57
2021/10/14 05:56:34;;;;;;;17.05;10.25;;;;;;;;;;5067081;28;20166;-57
2021/10/14 05:59:00;;;;;;;13.98;9.25;;;;;;;;;;5071704;28;20024;-57
2021/10/14 06:01:25;;;;;;;14.77;11.00;;;;;;;;;;5071120;28;20435;-58
2021/10/14 06:03:50;;;;;;;15.75;10.02;;;;;;;;;;5071095;28;20036;-59
2021/10/14 06:06:15;;;;;;;10.77;9.05;;;;;;;;;;5070773;28;20040;-50
2021/10/14 06:08:41;;;;;;;10.23;7.32;;;;;;;;;;5071219;28;20120;-56
2021/10/14 06:11:06;;;;;;;11.77;10.52;;;;;;;;;;5072027;28;20025;-58
2021/10/14 06:13:31;;;;;;;15.60;10.43;;;;;;;;;;5071923;28;20440;-57
2021/10/14 06:15:56;;;;;;;7.47;5.38;;;;;;;;;;5071203;28;20136;-57
2021/10/14 06:18:22;;;;;;;9.90;7.63;;;;;;;;;;5070891;28;20093;-58
2021/10/14 06:20:47;;;;;;;13.07;9.13;;;;;;;;;;5071425;28;20472;-55
2021/10/14 06:23:12;;;;;;;6.65;5.75;;;;;;;;;;5070448;28;20107;-57
2021/10/14 06:25:38;;;;;;;12.70;9.65;;;;;;;;;;5069160;28;20052;-53
2021/10/14 06:28:03;;;;;;;18.27;10.50;;;;;;;;;;5069294;28;20032;-56
2021/10/14 06:30:29;;;;;;;12.65;8.85;;;;;;;;;;5061231;28;20020;-53
2021/10/14 06:32:54;;;;;;;10.32;8.00;;;;;;;;;;5069974;28;20021;-58
2021/10/14 06:35:19;;;;;;;5.85;4.80;;;;;;;;;;5071561;28;20025;-57
2021/10/14 06:37:45;;;;;;;8.82;6.03;;;;;;;;;;5068931;28;20025;-56
2021/10/14 06:40:10;;;;;;;12.80;9.40;;;;;;;;;;5071668;28;20017;-56
2021/10/14 06:42:35;;;;;;;5.22;4.32;;;;;;;;;;5070534;28;20099;-51
2021/10/14 06:45:00;;;;;;;10.98;9.13;;;;;;;;;;5071530;28;20118;-58
2021/10/14 06:47:26;;;;;;;8.43;6.50;;;;;;;;;;5070705;28;20016;-57
2021/10/14 06:49:51;;;;;;;7.72;6.05;;;;;;;;;;5071599;28;20020;-54
2021/10/14 06:52:16;;;;;;;7.85;6.40;;;;;;;;;;5071200;28;20094;-56
2021/10/14 06:54:43;;;;;;;5.97;4.80;;;;;;;;;;5071777;28;20017;-55
2021/10/14 06:57:08;;;;;;;8.43;6.22;;;;;;;;;;5069643;28;20438;-57
2021/10/14 06:59:33;;;;;;;6.75;5.00;;;;;;;;;;5069588;28;20052;-57
2021/10/14 07:01:58;;;;;;;9.48;8.48;;;;;;;;;;5070089;28;20444;-54
2021/10/14 07:04:24;;;;;;;10.98;8.80;;;;;;;;;;5072108;28;20029;-55
2021/10/14 07:06:49;;;;;;;3.80;2.83;;;;;;;;;;5070279;28;20029;-56
2021/10/14 07:09:14;;;;;;;7.88;6.53;;;;;;;;;;5070878;28;20028;-54
2021/10/14 07:11:50;;;;;;;9.90;8.25;;;;;;;;;;5070920;28;20263;-54
2021/10/14 07:14:16;;;;;;;12.20;7.90;;;;;;;;;;5071064;28;20067;-55
2021/10/14 07:16:41;;;;;;;8.00;6.32;;;;;;;;;;5070951;28;20103;-50
2021/10/14 07:19:06;;;;;;;7.40;4.55;;;;;;;;;;5070866;28;20020;-52
2021/10/14 07:21:31;;;;;;;6.10;5.03;;;;;;;;;;5069730;28;20079;-56
2021/10/14 07:23:57;;;;;;;5.38;3.78;;;;;;;;;;5070190;28;20032;-51
2021/10/14 07:26:22;;;;;;;8.50;5.82;;;;;;;;;;5071831;28;20052;-55
2021/10/14 07:28:47;;;;;;;10.00;6.60;;;;;;;;;;5071115;28;20027;-51
2021/10/14 07:31:12;;;;;;;7.85;5.95;;;;;;;;;;5070303;28;20504;-54
2021/10/14 07:33:37;;;;;;;6.85;5.88;;;;;;;;;;5071076;28;20032;-54
2021/10/14 07:36:05;;;;;;;7.43;5.70;;;;;;;;;;5070424;28;20070;-54
2021/10/14 07:38:30;;;;;;;6.18;5.53;;;;;;;;;;5070254;28;20032;-53
2021/10/14 07:40:55;;;;;;;7.03;5.85;;;;;;;;;;5070252;28;20058;-51
2021/10/14 07:43:21;;;;;;;3.30;2.03;;;;;;;;;;5069798;28;20123;-53
2021/10/14 07:45:47;;;;;;;4.45;3.95;;;;;;;;;;5070721;28;20031;-56
2021/10/14 07:48:12;;;;;;;5.72;4.28;;;;;;;;;;5070379;28;20031;-56
2021/10/14 07:50:37;;;;;;;5.80;4.75;;;;;;;;;;5067867;28;20032;-54
2021/10/14 07:53:16;;;;;;;2.47;1.98;;;;;;;;;;5069495;28;20566;-50
2021/10/14 07:55:41;;;;;;;5.10;4.55;;;;;;;;;;5068769;28;20023;-55
2021/10/14 07:58:07;;;;;;;4.10;3.25;;;;;;;;;;5073200;28;20025;-56
2021/10/14 08:00:33;;;;;;;3.90;3.50;;;;;;;;;;5075553;28;20124;-57
2021/10/14 08:02:58;;;;;;;4.80;4.40;;;;;;;;;;5073439;28;20463;-56
2021/10/14 08:05:24;;;;;;;5.15;4.65;;;;;;;;;;5077056;28;20416;-55
2021/10/14 08:07:50;;;;;;;5.70;5.03;;;;;;;;;;5074401;28;20405;-57
2021/10/14 08:10:15;;;;;;;4.57;3.67;;;;;;;;;;5073328;28;20547;-57
2021/10/14 08:12:42;;;;;;;5.85;4.55;;;;;;;;;;5074324;28;20019;-55
2021/10/14 08:15:07;;;;;;;2.50;2.30;;;;;;;;;;5074394;28;20029;-56
2021/10/14 08:17:32;;;;;;;3.13;1.85;;;;;;;;;;5072180;28;20442;-57
2021/10/14 08:19:58;;;;;;;4.43;3.78;;;;;;;;;;5073260;28;20123;-57
2021/10/14 08:22:23;;;;;;;3.92;3.45;;;;;;;;;;5072656;28;20111;-56
2021/10/14 08:24:48;;;;;;;4.97;4.47;;;;;;;;;;5073902;28;20044;-55
2021/10/14 08:27:14;;;;;;;4.22;3.83;;;;;;;;;;5066944;28;20083;-57
2021/10/14 08:29:39;;;;;;;4.32;3.92;;;;;;;;;;5072661;28;20346;-56
2021/10/14 08:32:04;;;;;;;4.80;4.32;;;;;;;;;;5062010;28;20104;-57
2021/10/14 08:34:30;;;;;;;2.00;1.80;;;;;;;;;;5072639;28;20271;-57
2021/10/14 08:36:56;;;;;;;2.50;2.30;;;;;;;;;;5072864;28;20021;-56
2021/10/14 08:39:21;;;;;;;2.90;2.38;;;;;;;;;;5073679;28;20139;-57
2021/10/14 08:41:47;;;;;;;1.30;1.20;;;;;;;;;;5072651;28;20036;-58
2021/10/14 08:44:19;;;;;;;2.00;1.80;;;;;;;;;;5073218;28;20021;-57
2021/10/14 08:46:45;;;;;;;1.40;1.23;;;;;;;;;;5073233;28;20024;-56
2021/10/14 08:49:10;;;;;;;2.38;2.00;;;;;;;;;;5073624;28;20036;-57
2021/10/14 08:51:36;;;;;;;1.25;1.05;;;;;;;;;;5072885;28;20029;-58
2021/10/14 08:54:01;;;;;;;3.58;3.10;;;;;;;;;;5073671;28;20020;-55
2021/10/14 08:56:28;;;;;;;2.30;2.10;;;;;;;;;;5064085;28;20024;-56
2021/10/14 08:58:53;;;;;;;3.05;2.75;;;;;;;;;;5069852;28;20027;-58
2021/10/14 09:01:19;;;;;;;4.00;3.70;;;;;;;;;;5073273;28;20127;-58
2021/10/14 09:03:48;;;;;;;4.25;3.85;;;;;;;;;;5073396;28;20391;-58
2021/10/14 09:06:14;;;;;;;3.08;2.88;;;;;;;;;;5072123;28;20024;-58
2021/10/14 09:08:43;;;;;;;3.90;3.60;;;;;;;;;;5072812;28;20031;-57
2021/10/14 09:11:10;;;;;;;2.65;2.45;;;;;;;;;;5072943;28;20123;-57
2021/10/14 09:13:36;;;;;;;2.42;2.22;;;;;;;;;;5073364;28;20047;-59
2021/10/14 09:16:23;;;;;;;2.42;2.22;;;;;;;;;;5073451;28;20024;-56
2021/10/14 09:18:48;;;;;;;2.50;2.00;;;;;;;;;;5068959;28;20024;-57
2021/10/14 09:21:19;;;;;;;2.25;2.10;;;;;;;;;;5072535;28;20074;-58
2021/10/14 09:23:44;;;;;;;2.42;1.77;;;;;;;;;;5072655;28;20024;-57
2021/10/14 09:26:10;;;;;;;1.17;1.08;;;;;;;;;;5064840;28;20536;-57
2021/10/14 09:28:35;;;;;;;1.52;1.08;;;;;;;;;;5071459;28;20420;-57
2021/10/14 09:31:01;;;;;;;1.73;1.58;;;;;;;;;;5062507;28;20033;-57
2021/10/14 09:33:26;;;;;;;2.58;2.05;;;;;;;;;;5070088;28;20396;-55
2021/10/14 09:35:52;;;;;;;1.25;1.15;;;;;;;;;;5070592;28;20013;-57
2021/10/14 09:38:29;;;;;;;1.50;1.40;;;;;;;;;;5071008;28;20392;-58
2021/10/14 09:40:59;;;;;;;2.90;2.60;;;;;;;;;;5071879;28;20043;-56
2021/10/14 09:43:25;;;;;;;2.22;2.13;;;;;;;;;;5075149;28;20040;-58
2021/10/14 09:45:51;;;;;;;1.75;1.65;;;;;;;;;;5071171;28;20467;-53
2021/10/14 09:48:16;;;;;;;2.90;2.70;;;;;;;;;;5072179;28;20473;-58
2021/10/14 09:50:43;;;;;;;1.85;1.75;;;;;;;;;;5070719;28;20477;-57
2021/10/14 09:53:18;;;;;;;3.63;1.42;;;;;;;;;;5071089;28;20016;-59
2021/10/14 09:55:43;;;;;;;1.83;1.73;;;;;;;;;;5067062;28;20022;-58
2021/10/14 09:58:09;;;;;;;2.17;1.70;;;;;;;;;;5072004;28;20460;-56
2021/10/14 10:00:36;;;;;;;1.90;1.73;;;;;;;;;;5071638;28;20024;-58
2021/10/14 10:03:03;;;;;;;3.70;3.38;;;;;;;;;;5071426;28;20400;-58
2021/10/14 10:05:31;;;;;;;2.28;1.80;;;;;;;;;;5070808;28;20028;-58
2021/10/14 10:07:58;;;;;;;2.70;2.50;;;;;;;;;;5069836;28;20028;-57
2021/10/14 10:10:24;;;;;;;2.30;1.90;;;;;;;;;;5070303;28;20027;-58
2021/10/14 10:12:50;;;;;;;2.38;2.20;;;;;;;;;;5071625;28;20107;-58
2021/10/14 10:15:35;;;;;;;2.42;2.03;;;;;;;;;;5072044;28;20025;-59
2021/10/14 10:18:00;;;;;;;1.88;1.77;;;;;;;;;;5071084;28;20475;-58
2021/10/14 10:20:43;;;;;;;1.42;1.33;;;;;;;;;;5071847;28;20101;-58
2021/10/14 10:23:09;;;;;;;2.60;1.90;;;;;;;;;;5067578;28;20035;-54
2021/10/14 10:25:35;;;;;;;2.67;2.47;;;;;;;;;;5067628;28;20057;-57
2021/10/14 10:28:02;;;;;;;1.23;1.02;;;;;;;;;;5070307;28;20037;-59
2021/10/14 10:30:27;;;;;;;1.55;1.45;;;;;;;;;;5069975;28;20329;-58
2021/10/14 10:32:53;;;;;;;0.82;0.70;;;;;;;;;;5070496;28;20052;-58
2021/10/14 10:35:36;;;;;;;1.67;1.33;;;;;;;;;;5071475;28;20032;-57
2021/10/14 10:38:15;;;;;;;1.27;1.10;;;;;;;;;;5069439;28;20020;-57
2021/10/14 10:40:42;;;;;;;0.90;0.57;;;;;;;;;;5069554;28;20472;-57
2021/10/14 10:43:09;;;;;;;1.92;0.80;;;;;;;;;;5069259;28;20318;-56
2021/10/14 10:45:40;;;;;;;1.70;1.15;;;;;;;;;;5070222;28;20032;-57
2021/10/14 10:48:06;;;;;;;0.57;0.57;;;;;;;;;;5070394;28;20481;-56
2021/10/14 10:50:31;;;;;;;0.73;0.50;;;;;;;;;;5071252;28;20065;-57
2021/10/14 10:53:07;;;;;;;1.23;1.00;;;;;;;;;;5070034;28;20535;-54
2021/10/14 10:55:33;;;;;;;0.80;0.65;;;;;;;;;;5067912;28;20289;-57
2021/10/14 10:57:59;;;;;;;0.50;0.50;;;;;;;;;;5070607;28;20469;-54
2021/10/14 11:00:25;;;;;;;2.05;1.13;;;;;;;;;;5071429;28;20029;-55
2021/10/14 11:03:06;;;;;;;1.15;1.05;;;;;;;;;;5071281;28;20441;-56
2021/10/14 11:05:58;;;;;;;1.50;1.08;;;;;;;;;;5071244;28;20021;-53
2021/10/14 11:08:25;;;;;;;1.02;0.75;;;;;;;;;;5062640;28;20044;-56
2021/10/14 11:10:57;;;;;;;2.80;1.20;;;;;;;;;;5071102;28;20148;-54
2021/10/14 11:13:23;;;;;;;1.17;1.00;;;;;;;;;;5071091;28;20505;-56
2021/10/14 11:15:50;;;;;;;1.92;1.40;;;;;;;;;;5071203;28;20025;-56
2021/10/14 11:18:15;;;;;;;1.50;1.10;;;;;;;;;;5070232;28;20028;-56
2021/10/14 11:20:47;;;;;;;1.90;1.00;;;;;;;;;;5071287;28;20024;-57
2021/10/14 11:23:13;;;;;;;2.20;1.98;;;;;;;;;;5068453;28;20070;-57
2021/10/14 11:25:38;;;;;;;2.42;2.20;;;;;;;;;;5067388;28;20139;-55
2021/10/14 11:28:04;;;;;;;1.50;1.33;;;;;;;;;;5070163;28;20070;-57
2021/10/14 11:30:38;;;;;;;2.33;2.13;;;;;;;;;;5073869;28;20070;-57
2021/10/14 11:33:10;;;;;;;2.25;2.05;;;;;;;;;;5075085;28;20099;-56
2021/10/14 11:35:36;;;;;;;2.90;2.30;;;;;;;;;;5074411;28;20119;-59
2021/10/14 11:38:08;;;;;;;2.60;1.80;;;;;;;;;;5073090;28;20027;-58
2021/10/14 11:40:37;;;;;;;3.03;2.63;;;;;;;;;;5074535;28;20582;-55
2021/10/14 11:43:02;;;;;;;4.13;3.40;;;;;;;;;;5071996;28;20096;-55
2021/10/14 11:45:28;;;;;;;1.42;1.02;;;;;;;;;;5074970;28;20059;-54
2021/10/14 11:47:53;;;;;;;2.72;1.98;;;;;;;;;;5071361;28;20493;-55
2021/10/14 11:50:22;;;;;;;3.47;3.13;;;;;;;;;;5072689;28;20070;-57
2021/10/14 11:53:00;;;;;;;5.97;5.40;;;;;;;;;;5073202;28;20212;-56
2021/10/14 11:55:25;;;;;;;5.47;4.93;;;;;;;;;;5065712;28;20024;-57
2021/10/14 11:57:51;;;;;;;4.15;3.80;;;;;;;;;;5073119;28;20008;-57
2021/10/14 12:00:16;;;;;;;5.43;4.50;;;;;;;;;;5073324;28;20048;-58
2021/10/14 12:02:43;;;;;;;8.38;7.50;;;;;;;;;;5073548;28;20111;-57
2021/10/14 12:05:09;;;;;;;8.52;7.50;;;;;;;;;;5074627;28;20027;-56
2021/10/14 12:07:34;;;;;;;7.70;6.65;;;;;;;;;;5074754;28;20017;-57
2021/10/14 12:09:59;;;;;;;9.23;8.10;;;;;;;;;;5073495;28;20036;-54
2021/10/14 12:12:26;;;;;;;8.27;6.25;;;;;;;;;;5072137;28;20035;-57
2021/10/14 12:15:00;;;;;;;8.35;7.55;;;;;;;;;;5074496;28;20024;-56
2021/10/14 12:17:35;;;;;;;8.02;7.10;;;;;;;;;;5073991;28;20052;-55
2021/10/14 12:20:08;;;;;;;6.53;5.75;;;;;;;;;;5073500;28;20091;-54
2021/10/14 12:22:39;;;;;;;6.25;5.60;;;;;;;;;;5066720;28;20028;-57
2021/10/14 12:25:04;;;;;;;8.27;7.13;;;;;;;;;;5071659;28;20049;-57
2021/10/14 12:27:46;;;;;;;8.68;7.15;;;;;;;;;;5067894;28;20040;-55
2021/10/14 12:30:22;;;;;;;7.85;6.95;;;;;;;;;;5070789;28;20454;-55
2021/10/14 12:32:48;;;;;;;7.43;6.72;;;;;;;;;;5075782;28;20627;-56
2021/10/14 12:35:13;;;;;;;7.70;6.70;;;;;;;;;;5070959;28;20056;-54
2021/10/14 12:37:39;;;;;;;8.30;7.28;;;;;;;;;;5073013;28;20055;-51
2021/10/14 12:40:11;;;;;;;3.20;2.80;;;;;;;;;;5071524;28;20032;-56
2021/10/14 12:43:41;;;;;;;7.45;6.65;;;;;;;;;;5071754;28;20540;-55
2021/10/14 12:45:56;;;;;;;8.88;6.80;;;;;;;;;;5071764;28;20139;-53
2021/10/14 12:53:44;;;;;;;6.70;6.10;;;;;;;;;;5068510;28;20040;-57
2021/10/14 12:56:10;;;;;;;6.18;5.57;;;;;;;;;;5064961;28;20090;-54
2021/10/14 12:58:36;;;;;;;6.72;5.60;;;;;;;;;;5074742;28;20102;-54
2021/10/14 13:01:01;;;;;;;5.57;5.05;;;;;;;;;;5074375;28;20008;-57
2021/10/14 13:03:26;;;;;;;5.03;4.53;;;;;;;;;;5071359;28;20112;-57
2021/10/14 13:05:52;;;;;;;6.03;5.43;;;;;;;;;;5071863;28;20427;-57
2021/10/14 13:08:17;;;;;;;7.28;5.20;;;;;;;;;;5071700;28;20029;-51
2021/10/14 13:10:42;;;;;;;5.97;5.22;;;;;;;;;;5070947;28;20024;-58
2021/10/14 13:13:08;;;;;;;5.93;5.32;;;;;;;;;;5069909;28;20027;-57
2021/10/14 13:15:33;;;;;;;4.28;3.47;;;;;;;;;;5072263;28;20032;-57
2021/10/14 13:17:58;;;;;;;5.78;5.15;;;;;;;;;;5071482;28;20174;-58
2021/10/14 13:20:24;;;;;;;5.82;5.32;;;;;;;;;;5069565;28;20082;-58
2021/10/14 13:22:49;;;;;;;6.68;6.05;;;;;;;;;;5069434;28;20012;-57
2021/10/14 13:25:15;;;;;;;6.13;5.60;;;;;;;;;;5066005;28;20523;-56
2021/10/14 13:27:40;;;;;;;5.47;4.97;;;;;;;;;;5066858;28;20615;-57
2021/10/14 13:30:05;;;;;;;5.88;5.38;;;;;;;;;;5068224;28;20437;-58
2021/10/14 13:32:30;;;;;;;4.82;4.43;;;;;;;;;;5068784;28;20438;-62
2021/10/14 13:34:56;;;;;;;4.75;4.35;;;;;;;;;;5069907;28;20032;-58
2021/10/14 13:37:21;;;;;;;4.00;3.42;;;;;;;;;;5070075;28;20020;-56
2021/10/14 13:39:49;;;;;;;4.30;3.90;;;;;;;;;;5070803;28;20024;-57
2021/10/14 13:42:14;;;;;;;6.38;5.78;;;;;;;;;;5071466;28;20484;-58
2021/10/14 13:44:39;;;;;;;5.68;5.18;;;;;;;;;;5071446;28;20029;-58
2021/10/14 13:47:05;;;;;;;5.80;5.15;;;;;;;;;;5070333;28;20025;-58
2021/10/14 13:49:30;;;;;;;5.30;4.80;;;;;;;;;;5068094;28;20035;-58
2021/10/14 13:51:55;;;;;;;5.93;5.38;;;;;;;;;;5072896;28;20064;-57
2021/10/14 13:54:20;;;;;;;5.07;4.68;;;;;;;;;;5071347;28;20029;-56
2021/10/14 13:56:45;;;;;;;6.90;6.20;;;;;;;;;;5067074;28;20028;-57
2021/10/14 13:59:11;;;;;;;5.30;4.80;;;;;;;;;;5071627;28;20459;-57
2021/10/14 14:01:36;;;;;;;4.68;4.28;;;;;;;;;;5071933;28;20407;-57
2021/10/14 14:04:01;;;;;;;5.53;5.03;;;;;;;;;;5070934;28;20362;-57
2021/10/14 14:06:29;;;;;;;5.93;5.43;;;;;;;;;;5071274;28;20040;-58
2021/10/14 14:08:54;;;;;;;5.63;5.13;;;;;;;;;;5063810;28;20033;-57
2021/10/14 14:11:19;;;;;;;5.00;4.60;;;;;;;;;;5070972;28;20108;-56
2021/10/14 14:13:45;;;;;;;4.70;4.30;;;;;;;;;;5071580;28;20025;-56
2021/10/14 14:16:11;;;;;;;5.32;4.88;;;;;;;;;;5071239;28;20032;-55
2021/10/14 14:18:36;;;;;;;4.47;4.07;;;;;;;;;;5071050;28;20063;-56
2021/10/14 14:21:01;;;;;;;5.00;4.60;;;;;;;;;;5070079;28;20060;-56
2021/10/14 14:23:27;;;;;;;4.10;3.35;;;;;;;;;;5070031;28;20388;-58
2021/10/14 14:25:52;;;;;;;4.20;3.90;;;;;;;;;;5064569;28;20087;-57
2021/10/14 14:28:18;;;;;;;5.30;4.75;;;;;;;;;;5070321;28;20432;-56
2021/10/14 14:30:44;;;;;;;5.28;4.82;;;;;;;;;;5070046;28;20100;-56
2021/10/14 14:33:09;;;;;;;6.60;6.00;;;;;;;;;;5070214;28;20563;-57
2021/10/14 14:35:34;;;;;;;2.10;1.92;;;;;;;;;;5071190;28;20032;-58
2021/10/14 14:37:59;;;;;;;6.18;5.60;;;;;;;;;;5070575;28;20039;-57
2021/10/14 14:40:26;;;;;;;6.78;6.07;;;;;;;;;;5071163;28;20075;-58